Time;durP1;ratioP1;P1;durP2;ratioP2;P2;SDS_P1;SDS_P2;PMS_P1;PMS_P2;Temp;Humidity;BMP_temperature;BMP_pressure;BME280_temperature;BME280_humidity;BME280_pressure;Samples;Min_cycle;Max_cycle;Signal;HPM_P1;HPM_P2
2024/01/20 00:03:25;;;;;;;21.70;12.38;;;9.60;99.90;;;;;;10542011;27;20046;-64
2024/01/20 00:08:27;;;;;;;23.10;12.73;;;9.20;99.90;;;;;;10545413;27;20107;-65
2024/01/20 00:13:30;;;;;;;26.13;13.13;;;8.20;99.90;;;;;;10536035;27;20161;-65
2024/01/20 00:18:32;;;;;;;;;;;8.90;99.90;;;;;;10535141;28;20214;-67
2024/01/20 00:23:34;;;;;;;22.08;13.45;;;9.40;99.90;;;;;;10540254;28;19931;-66
2024/01/20 00:28:37;;;;;;;30.08;16.40;;;9.40;99.90;;;;;;10544053;27;20797;-67
2024/01/20 00:33:39;;;;;;;26.27;16.25;;;8.60;99.90;;;;;;10549796;27;20285;-65
2024/01/20 00:38:42;;;;;;;24.50;14.95;;;8.10;99.90;;;;;;10554324;27;20047;-66
2024/01/20 00:43:45;;;;;;;25.35;15.50;;;9.20;99.90;;;;;;10557032;27;20735;-66
2024/01/20 00:48:47;;;;;;;28.60;15.90;;;9.70;99.90;;;;;;10553347;27;20325;-65
2024/01/20 00:53:49;;;;;;;27.38;16.10;;;8.30;99.90;;;;;;10554419;27;20142;-66
2024/01/20 00:58:53;;;;;;;26.80;17.40;;;7.60;99.90;;;;;;10552682;27;20181;-66
2024/01/20 01:03:54;;;;;;;;;;;8.10;99.90;;;;;;10548156;27;20150;-65
2024/01/20 01:08:56;;;;;;;28.85;14.20;;;8.20;99.90;;;;;;10553153;27;19919;-65
2024/01/20 01:14:00;;;;;;;20.92;13.82;;;9.20;99.90;;;;;;10547083;27;20052;-66
2024/01/20 01:19:02;;;;;;;21.15;12.85;;;11.00;99.90;;;;;;10556551;27;20040;-67
2024/01/20 01:24:04;;;;;;;28.85;17.48;;;11.70;99.90;;;;;;10553372;27;20149;-66
2024/01/20 01:29:08;;;;;;;24.65;15.73;;;8.90;99.90;;;;;;10551830;27;20078;-67
2024/01/20 01:34:10;;;;;;;29.40;16.45;;;8.60;99.90;;;;;;10564304;27;20044;-65
2024/01/20 01:39:12;;;;;;;22.50;13.97;;;9.50;99.90;;;;;;10556795;27;20051;-65
2024/01/20 01:44:16;;;;;;;27.88;15.48;;;9.90;99.90;;;;;;10560748;27;20058;-65
2024/01/20 01:49:18;;;;;;;28.48;16.75;;;9.60;99.90;;;;;;10562055;27;20050;-65
2024/01/20 01:54:22;;;;;;;25.55;15.35;;;7.80;99.90;;;;;;10560804;27;20044;-64
2024/01/20 01:59:26;;;;;;;27.52;13.77;;;7.90;99.90;;;;;;10557049;27;20512;-65
2024/01/20 02:04:30;;;;;;;29.02;17.75;;;8.80;99.90;;;;;;10553025;27;20422;-64
2024/01/20 02:09:33;;;;;;;30.52;17.90;;;8.40;99.90;;;;;;10555548;27;20051;-67
2024/01/20 02:14:37;;;;;;;35.35;18.15;;;8.80;99.90;;;;;;10553824;27;20141;-66
2024/01/20 02:19:40;;;;;;;29.85;17.73;;;9.80;99.90;;;;;;10550668;27;20051;-66
2024/01/20 02:24:48;;;;;;;33.53;19.07;;;8.10;99.90;;;;;;10555806;27;20066;-66
2024/01/20 02:29:50;;;;;;;29.65;17.33;;;7.90;99.90;;;;;;10548928;27;21242;-66
2024/01/20 02:34:52;;;;;;;34.58;18.67;;;8.30;99.90;;;;;;10554678;27;20530;-64
2024/01/20 02:39:57;;;;;;;30.85;19.42;;;7.90;99.90;;;;;;10550085;27;20048;-65
2024/01/20 02:44:59;;;;;;;36.97;20.70;;;7.00;99.90;;;;;;10553493;27;20044;-65
2024/01/20 02:50:01;;;;;;;34.50;19.50;;;8.10;99.90;;;;;;10547888;27;21139;-66
2024/01/20 02:55:05;;;;;;;30.27;15.67;;;6.60;99.90;;;;;;10550622;27;20481;-65
2024/01/20 03:00:09;;;;;;;31.60;17.65;;;9.80;99.90;;;;;;10554931;27;20509;-67
2024/01/20 03:05:11;;;;;;;31.02;17.38;;;10.20;99.90;;;;;;10548881;27;20059;-67
2024/01/20 03:10:15;;;;;;;26.90;16.47;;;9.80;99.90;;;;;;10544156;27;20040;-66
2024/01/20 03:15:17;;;;;;;22.02;11.90;;;10.40;99.90;;;;;;10546573;27;20063;-66
2024/01/20 03:20:19;;;;;;;29.48;13.57;;;11.30;99.90;;;;;;10551059;27;20508;-66
2024/01/20 03:25:22;;;;;;;27.07;16.57;;;11.40;99.90;;;;;;10546510;27;20195;-66
2024/01/20 03:30:24;;;;;;;25.17;16.73;;;11.60;99.90;;;;;;10548673;27;20512;-65
2024/01/20 03:35:26;;;;;;;31.02;17.92;;;11.20;99.90;;;;;;10554443;27;20052;-67
2024/01/20 03:40:30;;;;;;;27.10;15.63;;;9.60;99.90;;;;;;10546033;27;20525;-65
2024/01/20 03:45:32;;;;;;;34.13;18.88;;;10.00;99.90;;;;;;10550507;27;20039;-66
2024/01/20 03:50:34;;;;;;;30.33;18.75;;;9.50;99.90;;;;;;10549775;27;20056;-65
2024/01/20 03:55:37;;;;;;;36.72;23.08;;;9.50;99.90;;;;;;10546579;27;20047;-66
2024/01/20 04:15:33;;;;;;;41.42;25.23;;;6.30;99.90;;;;;;10503690;27;20113;-66
2024/01/20 04:20:35;;;;;;;40.53;22.90;;;5.20;99.90;;;;;;10523969;28;20036;-66
2024/01/20 04:25:37;;;;;;;37.45;21.20;;;4.60;99.90;;;;;;10524766;28;20144;-66
2024/01/20 04:30:40;;;;;;;35.17;20.55;;;5.70;99.90;;;;;;10524976;28;20135;-66
2024/01/20 04:35:43;;;;;;;33.65;20.13;;;6.10;99.90;;;;;;10529365;28;20076;-66
2024/01/20 04:40:45;;;;;;;33.85;19.00;;;6.60;99.90;;;;;;10520659;28;20098;-66
2024/01/20 04:45:48;;;;;;;26.05;13.48;;;6.40;99.90;;;;;;10517834;28;20426;-65
2024/01/20 04:50:50;;;;;;;;;;;6.90;99.90;;;;;;10519846;28;20760;-66
2024/01/20 04:55:52;;;;;;;27.33;13.40;;;8.00;99.90;;;;;;10519647;28;19920;-66
2024/01/20 05:00:55;;;;;;;18.27;10.75;;;9.30;99.90;;;;;;10518346;28;20048;-66
2024/01/20 05:05:57;;;;;;;22.40;11.85;;;10.70;99.90;;;;;;10516519;28;20166;-66
2024/01/20 05:10:59;;;;;;;26.83;14.20;;;11.30;99.90;;;;;;10517298;28;20055;-66
2024/01/20 05:16:03;;;;;;;32.92;15.55;;;10.90;99.90;;;;;;10518777;28;20074;-66
2024/01/20 05:21:05;;;;;;;22.27;13.45;;;10.70;99.90;;;;;;10520176;28;20048;-66
2024/01/20 05:26:07;;;;;;;22.13;13.43;;;10.70;99.90;;;;;;10504763;28;20056;-66
2024/01/20 05:31:11;;;;;;;23.30;12.50;;;10.80;99.90;;;;;;10493390;28;20052;-66
2024/01/20 05:36:14;;;;;;;32.83;16.08;;;10.80;99.90;;;;;;10494237;28;20044;-65
2024/01/20 05:41:16;;;;;;;35.87;18.53;;;8.70;99.90;;;;;;10495845;28;20404;-64
2024/01/20 05:46:21;;;;;;;29.17;15.55;;;6.10;99.90;;;;;;10488745;28;20430;-64
2024/01/20 05:51:23;;;;;;;36.63;16.95;;;7.30;99.90;;;;;;10488531;28;20044;-64
2024/01/20 06:01:51;;;;;;;29.10;15.95;;;7.10;99.90;;;;;;10485988;28;20507;-65
2024/01/20 06:06:54;;;;;;;25.67;13.68;;;6.60;99.90;;;;;;10493680;28;20462;-65
2024/01/20 06:11:56;;;;;;;25.73;13.37;;;7.10;99.90;;;;;;10488284;28;20435;-67
2024/01/20 06:16:59;;;;;;;27.23;16.10;;;8.00;99.90;;;;;;10483083;28;20063;-65
2024/01/20 06:22:01;;;;;;;34.70;16.08;;;8.30;99.90;;;;;;10488800;28;20148;-64
2024/01/20 06:27:03;;;;;;;28.45;14.18;;;6.60;99.90;;;;;;10492277;28;20052;-65
2024/01/20 06:32:07;;;;;;;26.17;12.60;;;6.50;99.90;;;;;;10490961;28;20040;-65
2024/01/20 06:37:09;;;;;;;32.67;17.48;;;7.50;99.90;;;;;;10497217;28;20436;-64
2024/01/20 06:42:12;;;;;;;39.60;19.73;;;5.60;99.90;;;;;;10496577;28;20052;-65
2024/01/20 06:47:15;;;;;;;33.55;16.45;;;5.00;99.90;;;;;;10500814;28;20068;-64
2024/01/20 06:52:17;;;;;;;45.38;20.45;;;5.20;99.90;;;;;;10492581;28;20506;-65
2024/01/20 06:57:20;;;;;;;21.67;10.30;;;4.40;99.90;;;;;;10497676;28;20507;-66
2024/01/20 07:02:23;;;;;;;22.73;10.90;;;8.20;99.90;;;;;;10485596;28;20076;-67
2024/01/20 07:07:25;;;;;;;24.80;10.80;;;8.90;99.90;;;;;;10489051;28;20067;-65
2024/01/20 07:12:27;;;;;;;20.05;9.15;;;9.60;99.90;;;;;;10490300;28;20056;-65
2024/01/20 07:17:30;;;;;;;25.45;13.45;;;10.80;99.90;;;;;;10492056;28;20048;-65
2024/01/20 07:22:32;;;;;;;26.77;16.17;;;9.30;99.90;;;;;;10494215;28;20450;-64
2024/01/20 07:27:34;;;;;;;26.67;13.98;;;7.70;99.90;;;;;;10486884;28;20117;-65
2024/01/20 07:32:39;;;;;;;25.83;15.02;;;8.10;99.90;;;;;;10483429;28;20073;-65
2024/01/20 07:37:42;;;;;;;29.05;15.05;;;7.30;99.90;;;;;;10488079;28;20451;-66
2024/01/20 07:42:44;;;;;;;22.65;10.50;;;6.20;99.90;;;;;;10471492;28;20563;-65
2024/01/20 07:47:48;;;;;;;28.90;15.03;;;6.90;99.90;;;;;;10480918;28;20688;-65
2024/01/20 07:52:50;;;;;;;31.40;14.70;;;6.40;99.90;;;;;;10488705;28;20105;-65
2024/01/20 07:57:52;;;;;;;22.48;10.48;;;6.20;99.90;;;;;;10482532;28;20052;-66
2024/01/20 08:02:55;;;;;;;29.95;14.20;;;7.30;99.90;;;;;;10473196;28;20044;-66
2024/01/20 08:07:57;;;;;;;30.60;15.77;;;5.40;99.90;;;;;;10475572;28;20060;-66
2024/01/20 08:12:59;;;;;;;29.85;14.32;;;4.80;99.90;;;;;;10472319;28;21013;-65
2024/01/20 08:18:03;;;;;;;16.48;7.55;;;4.30;99.90;;;;;;10478361;28;20092;-65
2024/01/20 08:23:05;;;;;;;24.33;13.73;;;6.00;99.90;;;;;;10471472;28;20052;-65
2024/01/20 08:28:07;;;;;;;29.17;13.95;;;5.90;99.90;;;;;;10474048;28;20886;-65
2024/01/20 08:33:11;;;;;;;21.35;10.95;;;5.20;99.90;;;;;;10477524;28;20072;-65
2024/01/20 08:38:13;;;;;;;33.30;18.02;;;4.80;99.90;;;;;;10468131;28;20052;-65
2024/01/20 08:43:15;;;;;;;28.17;12.70;;;4.30;99.90;;;;;;10458918;28;20091;-65
2024/01/20 08:48:19;;;;;;;31.58;15.63;;;5.10;99.90;;;;;;10467201;28;20129;-65
2024/01/20 08:53:20;;;;;;;;;;;4.20;99.90;;;;;;10471572;28;20040;-65
2024/01/20 08:58:22;;;;;;;28.15;14.50;;;5.20;99.90;;;;;;10466346;28;19935;-66
2024/01/20 09:03:26;;;;;;;26.63;12.82;;;6.90;99.90;;;;;;10479993;28;20133;-66
2024/01/20 09:08:31;;;;;;;27.77;13.45;;;7.90;99.90;;;;;;10481254;28;20056;-66
2024/01/20 09:13:34;;;;;;;26.17;14.40;;;6.60;99.90;;;;;;10479897;28;20072;-66
2024/01/20 09:18:37;;;;;;;27.95;13.50;;;5.60;99.90;;;;;;10483503;28;20898;-66
2024/01/20 09:23:39;;;;;;;20.48;10.73;;;7.20;99.90;;;;;;10474900;28;20052;-66
2024/01/20 09:28:41;;;;;;;25.70;15.02;;;6.60;99.90;;;;;;10480356;28;20514;-67
2024/01/20 09:33:45;;;;;;;22.98;12.80;;;6.90;99.90;;;;;;10468447;28;20060;-65
2024/01/20 09:38:47;;;;;;;19.30;10.50;;;6.40;99.90;;;;;;10477423;28;22372;-66
2024/01/20 09:43:50;;;;;;;16.45;8.93;;;8.70;99.90;;;;;;10476324;28;20086;-65
2024/01/20 09:48:55;;;;;;;20.50;11.82;;;9.20;99.90;;;;;;10468859;28;20053;-66
2024/01/20 09:53:59;;;;;;;16.58;9.30;;;9.10;99.90;;;;;;10474739;28;20083;-64
2024/01/20 09:59:01;;;;;;;20.08;8.23;;;6.70;99.90;;;;;;10474275;28;20060;-65
2024/01/20 10:04:06;;;;;;;13.27;7.03;;;6.70;99.90;;;;;;10476560;28;20243;-65
2024/01/20 10:09:08;;;;;;;23.08;8.27;;;8.90;99.90;;;;;;10468129;28;21001;-65
2024/01/20 10:14:10;;;;;;;16.70;10.25;;;7.80;99.90;;;;;;10471326;28;20119;-64
2024/01/20 10:19:13;;;;;;;19.77;9.50;;;7.10;99.90;;;;;;10473468;28;20052;-65
2024/01/20 10:24:21;;;;;;;16.45;9.57;;;7.40;99.90;;;;;;10464512;28;20153;-65
2024/01/20 10:29:23;;;;;;;19.52;10.05;;;6.90;99.90;;;;;;10472602;28;20084;-63
2024/01/20 10:34:29;;;;;;;18.55;10.68;;;7.10;99.90;;;;;;10476605;28;20133;-64
2024/01/20 10:39:33;;;;;;;22.40;10.02;;;5.40;99.90;;;;;;10468102;28;20067;-63
2024/01/20 10:44:39;;;;;;;18.02;7.88;;;7.20;99.90;;;;;;10468852;28;20048;-63
2024/01/20 10:49:46;;;;;;;20.00;8.52;;;9.20;99.90;;;;;;10467040;28;20048;-64
2024/01/20 10:54:48;;;;;;;19.27;9.45;;;9.60;99.90;;;;;;10473557;28;20056;-63
2024/01/20 10:59:51;;;;;;;19.20;11.35;;;8.60;99.90;;;;;;10472774;28;20472;-64
2024/01/20 11:04:54;;;;;;;14.73;7.60;;;7.50;99.90;;;;;;10477427;28;20075;-64
2024/01/20 11:09:57;;;;;;;18.58;10.32;;;8.60;99.90;;;;;;10474752;28;20043;-63
2024/01/20 11:14:59;;;;;;;17.80;8.57;;;8.50;99.90;;;;;;10466177;28;20052;-63
2024/01/20 11:20:09;;;;;;;19.08;11.32;;;7.70;99.90;;;;;;10466817;28;20052;-64
2024/01/20 11:25:12;;;;;;;17.35;6.18;;;5.10;99.90;;;;;;10468066;28;20044;-63
2024/01/20 11:30:24;;;;;;;19.90;11.38;;;7.40;99.90;;;;;;10469345;28;20064;-63
2024/01/20 11:35:27;;;;;;;17.45;10.05;;;8.70;99.90;;;;;;10471152;28;20051;-63
2024/01/20 11:40:30;;;;;;;18.25;9.63;;;10.60;99.90;;;;;;10471252;28;20041;-64
2024/01/20 11:45:31;;;;;;;18.00;8.48;;;10.60;99.90;;;;;;10465159;28;20080;-63
2024/01/20 11:50:35;;;;;;;20.15;11.10;;;8.70;99.90;;;;;;10469269;28;20059;-62
2024/01/20 11:55:37;;;;;;;16.38;7.85;;;6.50;99.90;;;;;;10471078;28;20048;-64
2024/01/20 12:00:39;;;;;;;16.48;8.70;;;6.20;99.90;;;;;;10474746;28;20114;-63
2024/01/20 12:05:43;;;;;;;19.02;7.05;;;9.90;99.90;;;;;;10475545;28;20417;-64
2024/01/20 12:10:46;;;;;;;18.92;9.80;;;10.40;99.90;;;;;;10473819;28;20051;-62
2024/01/20 12:15:49;;;;;;;;;;;9.90;99.90;;;;;;10476162;28;20099;-62
2024/01/20 12:20:53;;;;;;;14.75;7.80;;;9.10;99.90;;;;;;10484809;28;19928;-64
2024/01/20 12:25:55;;;;;;;18.17;9.88;;;9.10;99.90;;;;;;10481465;28;20067;-62
2024/01/20 12:30:57;;;;;;;14.15;7.60;;;6.80;99.90;;;;;;10471274;28;20392;-62
2024/01/20 12:36:01;;;;;;;9.40;6.18;;;10.80;99.90;;;;;;10488484;28;20502;-64
2024/01/20 12:41:04;;;;;;;12.60;7.40;;;11.50;99.90;;;;;;10486480;28;20052;-63
2024/01/20 12:46:06;;;;;;;15.33;9.23;;;10.80;99.90;;;;;;10481501;28;20126;-63
2024/01/20 12:51:10;;;;;;;14.70;9.10;;;11.90;99.90;;;;;;10482591;28;20044;-63
2024/01/20 12:56:12;;;;;;;10.35;6.88;;;11.70;99.80;;;;;;10488149;28;20052;-63
2024/01/20 13:01:16;;;;;;;14.07;7.77;;;10.70;99.90;;;;;;10482049;28;20495;-63
2024/01/20 13:06:20;;;;;;;21.67;8.80;;;10.80;99.90;;;;;;10476240;28;20044;-63
2024/01/20 13:11:23;;;;;;;17.27;7.65;;;9.40;99.90;;;;;;10479994;28;20059;-63
2024/01/20 13:16:25;;;;;;;23.35;12.50;;;9.60;99.90;;;;;;10478022;28;20051;-63
2024/01/20 13:21:28;;;;;;;23.05;11.77;;;11.20;99.90;;;;;;10475069;28;20052;-63
2024/01/20 13:26:30;;;;;;;22.35;10.48;;;12.30;99.90;;;;;;10478799;28;20064;-64
2024/01/20 13:31:34;;;;;;;21.70;10.13;;;12.60;99.90;;;;;;10480112;28;20515;-63
2024/01/20 13:36:37;;;;;;;25.60;15.07;;;12.20;99.90;;;;;;10475216;28;20052;-63
2024/01/20 13:41:39;;;;;;;26.23;14.18;;;8.90;99.90;;;;;;10468499;28;20842;-63
2024/01/20 13:46:41;;;;;;;31.00;16.00;;;10.40;99.90;;;;;;10479736;28;20775;-63
2024/01/20 13:51:45;;;;;;;22.50;11.77;;;9.90;99.90;;;;;;10476534;28;20057;-63
2024/01/20 13:56:48;;;;;;;20.35;10.60;;;11.60;99.90;;;;;;10472264;28;20067;-63
2024/01/20 14:01:52;;;;;;;18.00;10.48;;;13.00;99.90;;;;;;10467151;28;20059;-64
2024/01/20 14:06:57;;;;;;;23.83;14.07;;;13.10;99.90;;;;;;10470785;28;20048;-64
2024/01/20 14:11:59;;;;;;;19.35;10.15;;;13.00;99.90;;;;;;10473678;28;20819;-64
2024/01/20 14:17:02;;;;;;;18.20;10.63;;;13.50;99.90;;;;;;10479055;28;20517;-64
2024/01/20 14:22:06;;;;;;;15.40;8.68;;;11.00;99.90;;;;;;10471797;28;20052;-64
2024/01/20 14:27:08;;;;;;;16.40;10.20;;;12.20;99.90;;;;;;10481068;28;20098;-64
2024/01/20 14:32:10;;;;;;;16.67;10.70;;;12.60;99.90;;;;;;10479893;28;20060;-63
2024/01/20 14:37:14;;;;;;;19.02;12.10;;;12.40;99.90;;;;;;10473877;28;20044;-64
2024/01/20 14:42:16;;;;;;;13.02;8.10;;;11.70;99.90;;;;;;10463788;28;20093;-64
2024/01/20 14:47:18;;;;;;;15.00;9.13;;;12.50;99.90;;;;;;10462104;28;20049;-64
2024/01/20 14:52:21;;;;;;;16.10;9.70;;;13.30;99.90;;;;;;10468953;28;20079;-65
2024/01/20 14:57:23;;;;;;;14.80;8.23;;;13.80;99.90;;;;;;10471843;28;20162;-63
2024/01/20 15:02:26;;;;;;;11.27;7.30;;;13.90;99.90;;;;;;10474754;28;20505;-63
2024/01/20 15:07:30;;;;;;;19.63;10.93;;;13.40;99.90;;;;;;10474601;28;20490;-63
2024/01/20 15:12:32;;;;;;;18.33;9.70;;;12.20;99.90;;;;;;10467698;28;21171;-63
2024/01/20 15:17:34;;;;;;;16.65;8.57;;;11.90;99.90;;;;;;10473041;28;20059;-64
2024/01/20 15:22:37;;;;;;;17.67;8.40;;;12.70;99.90;;;;;;10474350;28;20056;-63
2024/01/20 15:27:40;;;;;;;15.25;7.63;;;12.80;99.90;;;;;;10470737;28;20755;-64
2024/01/20 15:32:42;;;;;;;9.60;5.90;;;13.60;99.90;;;;;;10476817;28;20066;-63
2024/01/20 15:37:45;;;;;;;13.43;9.37;;;13.60;99.90;;;;;;10473236;28;20052;-66
2024/01/20 15:42:47;;;;;;;11.38;8.20;;;13.50;99.90;;;;;;10471794;28;20083;-60
2024/01/20 15:47:49;;;;;;;13.43;8.55;;;13.70;99.90;;;;;;10473331;28;20880;-62
2024/01/20 15:52:52;;;;;;;18.73;10.32;;;13.60;99.90;;;;;;10469125;28;20079;-64
2024/01/20 15:57:54;;;;;;;10.82;6.50;;;13.80;99.90;;;;;;10469336;28;20048;-62
2024/01/20 16:02:56;;;;;;;15.67;8.57;;;13.80;99.90;;;;;;10471506;28;20048;-62
2024/01/20 16:08:00;;;;;;;12.60;7.13;;;13.70;99.90;;;;;;10457680;28;20144;-62
2024/01/20 16:13:02;;;;;;;10.20;6.15;;;13.60;99.90;;;;;;10455630;28;20781;-63
2024/01/20 16:18:05;;;;;;;9.35;6.03;;;13.60;99.90;;;;;;10465543;28;20396;-62
2024/01/20 16:23:09;;;;;;;9.88;6.18;;;13.60;99.90;;;;;;10470502;28;20143;-63
2024/01/20 16:28:11;;;;;;;14.50;8.38;;;13.80;99.90;;;;;;10470009;28;20124;-63
2024/01/20 16:33:13;;;;;;;11.03;6.43;;;13.30;99.90;;;;;;10485825;28;20099;-64
2024/01/20 16:38:16;;;;;;;15.27;9.23;;;12.90;99.90;;;;;;10491871;28;20707;-61
2024/01/20 16:43:18;;;;;;;10.65;7.15;;;12.50;99.90;;;;;;10485229;28;20660;-62
2024/01/20 16:48:20;;;;;;;14.10;7.17;;;13.20;99.90;;;;;;10481010;28;20044;-63
2024/01/20 16:53:24;;;;;;;9.65;6.93;;;13.30;99.90;;;;;;10479641;28;20384;-63
2024/01/20 16:58:26;;;;;;;18.30;9.27;;;12.40;99.90;;;;;;10480839;28;20119;-63
2024/01/20 17:03:28;;;;;;;16.80;9.07;;;12.10;99.90;;;;;;10476179;28;20168;-62
2024/01/20 17:08:31;;;;;;;17.65;8.27;;;12.00;99.90;;;;;;10470409;28;20059;-63
2024/01/20 17:13:33;;;;;;;13.13;7.22;;;12.50;99.90;;;;;;10475048;28;20056;-63
2024/01/20 17:18:35;;;;;;;14.63;8.75;;;12.40;99.90;;;;;;10473875;28;20509;-62
2024/01/20 17:23:38;;;;;;;10.55;6.70;;;12.30;99.90;;;;;;10475707;28;20958;-62
2024/01/20 17:28:41;;;;;;;14.07;8.55;;;13.00;99.90;;;;;;10476903;28;20519;-62
2024/01/20 17:33:43;;;;;;;19.85;7.93;;;12.10;99.90;;;;;;10478902;28;20052;-62
2024/01/20 17:38:46;;;;;;;11.50;7.10;;;11.80;99.90;;;;;;10482146;28;20135;-62
2024/01/20 17:43:48;;;;;;;11.75;7.22;;;11.20;99.90;;;;;;10466084;28;20614;-62
2024/01/20 17:48:51;;;;;;;14.37;8.40;;;11.60;99.90;;;;;;10472075;28;20075;-62
2024/01/20 17:53:55;;;;;;;13.02;7.47;;;11.90;99.90;;;;;;10470722;28;20047;-62
2024/01/20 17:58:57;;;;;;;13.80;7.80;;;11.90;99.90;;;;;;10474074;28;20063;-64
2024/01/20 18:03:59;;;;;;;15.70;6.47;;;12.70;99.90;;;;;;10480814;28;20040;-62
2024/01/20 18:09:03;;;;;;;10.05;5.15;;;12.90;99.90;;;;;;10472295;28;20051;-64
2024/01/20 18:14:05;;;;;;;12.20;6.25;;;12.90;99.90;;;;;;10470754;28;20045;-64
2024/01/20 18:19:07;;;;;;;13.32;7.65;;;12.60;99.90;;;;;;10475382;28;20078;-64
2024/01/20 18:24:11;;;;;;;13.43;7.37;;;12.40;99.90;;;;;;10477854;28;20056;-63
2024/01/20 18:29:16;;;;;;;13.63;7.80;;;11.60;99.90;;;;;;10475945;28;20112;-63
2024/01/20 18:34:17;;;;;;;17.92;8.55;;;12.10;99.90;;;;;;10480767;28;20829;-63
2024/01/20 18:39:21;;;;;;;13.88;6.50;;;12.10;99.90;;;;;;10479706;28;20086;-64
2024/01/20 18:44:23;;;;;;;12.93;8.48;;;12.20;99.90;;;;;;10483080;28;20139;-64
2024/01/20 18:49:25;;;;;;;14.48;7.75;;;11.40;99.90;;;;;;10485662;28;20047;-63
2024/01/20 18:54:28;;;;;;;12.40;6.22;;;11.60;99.90;;;;;;10483088;28;20040;-65
2024/01/20 18:59:30;;;;;;;16.00;8.38;;;12.20;99.90;;;;;;10478411;28;20090;-64
2024/01/20 19:04:32;;;;;;;12.37;5.73;;;11.70;99.90;;;;;;10480339;28;20059;-64
2024/01/20 19:09:37;;;;;;;9.68;5.68;;;12.10;99.90;;;;;;10478230;28;20055;-64
2024/01/20 19:14:39;;;;;;;9.35;5.28;;;12.30;99.90;;;;;;10473842;28;20055;-64
2024/01/20 19:19:42;;;;;;;10.48;6.25;;;12.40;99.90;;;;;;10479418;28;20079;-64
2024/01/20 19:24:45;;;;;;;;;;;12.60;99.90;;;;;;10479304;28;20057;-65
2024/01/20 19:29:47;;;;;;;9.25;5.35;;;12.50;99.90;;;;;;10479597;28;20296;-63
2024/01/20 19:34:49;;;;;;;10.68;6.60;;;12.80;99.90;;;;;;10479149;28;20040;-65
2024/01/20 19:39:53;;;;;;;9.20;5.60;;;12.90;99.90;;;;;;10477988;28;20043;-63
2024/01/20 19:44:55;;;;;;;12.38;6.43;;;13.00;99.90;;;;;;10477247;28;20128;-64
2024/01/20 19:49:57;;;;;;;8.20;4.17;;;12.80;99.90;;;;;;10477271;28;20546;-63
2024/01/20 19:55:00;;;;;;;11.83;4.47;;;13.00;99.90;;;;;;10482963;28;20048;-63
2024/01/20 20:00:04;;;;;;;8.52;5.50;;;13.10;99.90;;;;;;10478678;28;20145;-64
2024/01/20 20:05:06;;;;;;;9.18;4.95;;;13.10;99.90;;;;;;10482068;28;20040;-63
2024/01/20 20:10:10;;;;;;;8.07;4.43;;;13.10;99.90;;;;;;10481747;28;20048;-63
2024/01/20 20:15:12;;;;;;;9.57;4.40;;;13.10;99.90;;;;;;10487670;28;20051;-64
2024/01/20 20:20:14;;;;;;;11.70;4.80;;;13.10;99.90;;;;;;10475223;28;20048;-64
2024/01/20 20:25:18;;;;;;;11.67;6.30;;;13.10;99.90;;;;;;10478527;28;20634;-65
2024/01/20 20:30:20;;;;;;;11.73;6.35;;;13.00;99.90;;;;;;10471952;28;20048;-64
2024/01/20 20:35:22;;;;;;;12.27;5.57;;;12.80;99.90;;;;;;10479184;28;20052;-65
2024/01/20 20:40:25;;;;;;;11.13;6.17;;;12.80;99.90;;;;;;10477683;28;20048;-64
2024/01/20 20:45:27;;;;;;;12.98;5.57;;;12.90;99.90;;;;;;10470500;28;20432;-66
2024/01/20 20:50:29;;;;;;;12.00;6.37;;;12.90;99.90;;;;;;10475382;28;20164;-65
2024/01/20 20:55:34;;;;;;;12.77;6.27;;;12.80;99.90;;;;;;10471211;28;20045;-65
2024/01/20 21:00:36;;;;;;;14.52;5.90;;;12.90;99.90;;;;;;10482711;28;20129;-66
2024/01/20 21:05:38;;;;;;;7.65;4.63;;;13.10;99.90;;;;;;10483657;28;20040;-65
2024/01/20 21:10:41;;;;;;;13.57;5.68;;;13.20;99.90;;;;;;10482602;28;20180;-66
2024/01/20 21:15:43;;;;;;;11.95;6.07;;;13.20;99.90;;;;;;10483079;28;20090;-65
2024/01/20 21:20:47;;;;;;;11.73;6.85;;;13.30;99.90;;;;;;10479984;28;20055;-63
2024/01/20 21:25:50;;;;;;;13.43;6.97;;;13.20;99.90;;;;;;10480532;28;20049;-64
2024/01/20 21:30:53;;;;;;;12.93;6.60;;;13.20;99.90;;;;;;10480413;28;20535;-63
2024/01/20 21:35:55;;;;;;;13.80;5.65;;;13.10;99.90;;;;;;10478983;28;20079;-64
2024/01/20 21:40:59;;;;;;;14.97;6.60;;;13.10;99.90;;;;;;10486832;28;20141;-64
2024/01/20 21:46:01;;;;;;;6.55;4.57;;;13.20;99.90;;;;;;10478239;28;20098;-65
2024/01/20 21:51:03;;;;;;;8.57;6.15;;;13.30;99.90;;;;;;10479751;28;20051;-65
2024/01/20 21:56:07;;;;;;;13.83;6.53;;;13.20;99.90;;;;;;10487262;28;20133;-63
2024/01/20 22:01:09;;;;;;;8.68;4.95;;;13.20;99.90;;;;;;10489809;28;20464;-63
2024/01/20 22:06:11;;;;;;;14.27;7.83;;;13.20;99.90;;;;;;10493357;28;20797;-63
2024/01/20 22:11:14;;;;;;;13.33;7.87;;;13.10;99.90;;;;;;10492119;28;20057;-63
2024/01/20 22:16:16;;;;;;;7.80;4.75;;;13.00;99.90;;;;;;10484943;28;20109;-63
2024/01/20 22:21:18;;;;;;;11.20;7.70;;;13.00;99.90;;;;;;10489874;28;20055;-64
2024/01/20 22:26:22;;;;;;;8.95;5.50;;;12.90;99.90;;;;;;10486338;28;20060;-64
2024/01/20 22:31:24;;;;;;;12.48;7.20;;;13.10;99.90;;;;;;10488879;28;20833;-63
2024/01/20 22:36:26;;;;;;;13.93;8.20;;;13.10;99.90;;;;;;10488754;28;20047;-62
2024/01/20 22:41:30;;;;;;;10.98;7.07;;;13.10;99.90;;;;;;10485382;28;20052;-63
2024/01/20 22:46:32;;;;;;;14.05;7.95;;;13.20;99.90;;;;;;10457328;28;20829;-63
2024/01/20 22:51:34;;;;;;;12.38;6.07;;;13.20;99.90;;;;;;10481853;28;20518;-64
2024/01/20 22:56:37;;;;;;;18.10;9.10;;;13.00;99.90;;;;;;10477226;28;20370;-62
2024/01/20 23:01:39;;;;;;;12.93;7.43;;;12.90;99.90;;;;;;10480970;28;20051;-64
2024/01/20 23:06:41;;;;;;;10.40;5.85;;;12.80;99.90;;;;;;10484613;28;20773;-63
2024/01/20 23:11:45;;;;;;;12.07;5.95;;;12.90;99.90;;;;;;10484090;28;20086;-62
2024/01/20 23:16:47;;;;;;;11.75;7.32;;;13.00;99.90;;;;;;10481260;28;20130;-62
2024/01/20 23:21:49;;;;;;;8.13;4.77;;;13.00;99.90;;;;;;10487342;28;20056;-63
2024/01/20 23:26:52;;;;;;;11.20;6.40;;;12.90;99.90;;;;;;10488784;28;20869;-64
2024/01/20 23:31:54;;;;;;;8.43;4.78;;;13.00;99.90;;;;;;10480823;28;20387;-63
2024/01/20 23:36:56;;;;;;;5.70;3.63;;;13.10;99.90;;;;;;10480937;28;20097;-63
2024/01/20 23:41:59;;;;;;;4.35;3.50;;;12.80;99.90;;;;;;10487400;28;20060;-63
2024/01/20 23:47:01;;;;;;;7.20;4.10;;;13.00;99.90;;;;;;10480684;28;20507;-63
2024/01/20 23:52:03;;;;;;;8.65;4.38;;;12.80;99.90;;;;;;10488712;28;20057;-63
2024/01/20 23:57:07;;;;;;;8.43;5.23;;;12.90;99.90;;;;;;10480663;28;20416;-64
